createdAt,value
2019-03-15T00:02:42.844Z,7.00
2019-03-15T00:05:11.812Z,6.90
2019-03-15T00:08:00.022Z,6.90
2019-03-15T00:10:48.164Z,6.90
2019-03-15T00:13:36.222Z,6.90
2019-03-15T00:16:45.112Z,6.90
2019-03-15T00:19:33.297Z,7.00
2019-03-15T00:22:13.758Z,7.10
2019-03-15T00:24:54.875Z,6.90
2019-03-15T00:27:35.711Z,6.90
2019-03-15T00:30:17.072Z,7.00
2019-03-15T00:32:58.578Z,7.10
2019-03-15T00:35:39.868Z,7.10
2019-03-15T00:38:20.968Z,7.00
2019-03-15T00:41:01.719Z,7.10
2019-03-15T00:43:42.586Z,7.20
2019-03-15T00:46:23.297Z,7.10
2019-03-15T00:49:04.085Z,7.10
2019-03-15T00:51:44.907Z,7.20
2019-03-15T00:54:25.548Z,7.20
2019-03-15T00:57:06.472Z,7.20
2019-03-15T00:59:47.101Z,7.30
2019-03-15T01:02:27.729Z,7.20
2019-03-15T01:05:08.472Z,7.30
2019-03-15T01:07:49.129Z,7.30
2019-03-15T01:10:29.715Z,7.30
2019-03-15T01:13:10.709Z,7.30
2019-03-15T01:15:51.640Z,7.30
2019-03-15T01:18:32.168Z,7.20
2019-03-15T01:21:12.928Z,7.10
2019-03-15T01:23:54.346Z,7.10
2019-03-15T01:26:35.704Z,6.90
2019-03-15T01:29:16.582Z,6.90
2019-03-15T01:31:57.537Z,6.80
2019-03-15T01:34:38.080Z,6.70
2019-03-15T01:37:18.906Z,6.60
2019-03-15T01:40:00.819Z,6.50
2019-03-15T01:42:30.144Z,6.50
2019-03-15T01:44:58.928Z,6.40
2019-03-15T01:47:47.077Z,6.40
2019-03-15T01:50:35.213Z,6.40
2019-03-15T01:53:23.569Z,6.40
2019-03-15T01:56:13.061Z,6.40
2019-03-15T01:59:01.125Z,6.50
2019-03-15T02:01:49.257Z,6.50
2019-03-15T02:04:37.378Z,6.50
2019-03-15T02:07:25.455Z,6.60
2019-03-15T02:10:13.507Z,6.50
2019-03-15T02:13:01.660Z,6.60
2019-03-15T02:15:49.710Z,6.50
2019-03-15T02:18:37.859Z,6.50
2019-03-15T02:21:19.154Z,6.50
2019-03-15T02:23:59.854Z,6.50
2019-03-15T02:26:40.383Z,6.40
2019-03-15T02:29:21.133Z,6.40
2019-03-15T02:32:01.525Z,6.30
2019-03-15T02:34:42.162Z,6.50
2019-03-15T02:37:22.647Z,6.50
2019-03-15T02:40:03.430Z,6.50
2019-03-15T02:42:43.986Z,6.60
2019-03-15T02:45:24.699Z,6.70
2019-03-15T02:48:05.254Z,6.70
2019-03-15T02:50:46.477Z,6.70
2019-03-15T02:53:27.229Z,6.70
2019-03-15T02:56:08.494Z,6.70
2019-03-15T03:02:02.207Z,6.70
2019-03-15T03:04:42.681Z,6.70
2019-03-15T03:07:23.347Z,6.80
2019-03-15T03:10:03.889Z,6.70
2019-03-15T03:12:32.917Z,6.80
2019-03-15T03:15:21.033Z,6.70
2019-03-15T03:18:09.101Z,6.70
2019-03-15T03:20:57.203Z,6.60
2019-03-15T03:23:37.796Z,6.60
2019-03-15T03:26:18.419Z,6.70
2019-03-15T03:28:59.230Z,6.70
2019-03-15T03:31:39.910Z,6.70
2019-03-15T03:34:20.712Z,6.70
2019-03-15T03:37:01.268Z,6.70
2019-03-15T03:39:41.994Z,6.80
2019-03-15T03:42:22.605Z,6.70
2019-03-15T03:45:03.228Z,6.70
2019-03-15T03:47:43.879Z,6.60
2019-03-15T03:50:24.309Z,6.70
2019-03-15T03:53:05.093Z,6.60
2019-03-15T03:55:45.710Z,6.50
2019-03-15T03:58:27.047Z,6.40
2019-03-15T04:00:56.045Z,6.40
2019-03-15T04:03:25.045Z,6.50
2019-03-15T04:06:13.426Z,6.50
2019-03-15T04:09:01.461Z,6.50
2019-03-15T04:11:55.255Z,6.60
2019-03-15T04:14:39.405Z,6.60
2019-03-15T04:17:27.586Z,6.60
2019-03-15T04:20:15.765Z,6.50
2019-03-15T04:22:56.569Z,6.50
2019-03-15T04:25:40.437Z,6.50
2019-03-15T04:28:19.854Z,6.50
2019-03-15T04:31:00.700Z,6.40
2019-03-15T04:33:41.137Z,6.40
2019-03-15T04:36:21.979Z,6.50
2019-03-15T04:39:02.621Z,6.40
2019-03-15T04:41:43.959Z,6.40
2019-03-15T04:44:24.499Z,6.40
2019-03-15T04:47:05.253Z,6.40
2019-03-15T04:49:46.574Z,6.30
2019-03-15T04:52:27.218Z,6.30
2019-03-15T04:55:08.075Z,6.30
2019-03-15T04:57:49.361Z,6.20
2019-03-15T05:00:30.311Z,6.10
2019-03-15T05:03:10.934Z,6.20
2019-03-15T05:06:02.575Z,6.20
2019-03-15T05:08:34.788Z,6.10
2019-03-15T05:11:15.586Z,6.10
2019-03-15T05:13:58.877Z,6.10
2019-03-15T05:16:39.261Z,6.10
2019-03-15T05:22:02.590Z,6.00
2019-03-15T05:24:43.088Z,6.10
2019-03-15T05:27:24.410Z,6.10
2019-03-15T05:30:05.017Z,6.00
2019-03-15T05:32:46.074Z,6.10
2019-03-15T05:35:27.106Z,6.10
2019-03-15T05:38:07.789Z,6.10
2019-03-15T05:40:48.725Z,6.10
2019-03-15T05:43:29.306Z,6.00
2019-03-15T05:46:10.029Z,6.10
2019-03-15T05:48:51.341Z,6.10
2019-03-15T05:51:31.851Z,6.10
2019-03-15T05:54:12.567Z,6.10
2019-03-15T05:56:53.273Z,6.20
2019-03-15T05:59:33.895Z,6.30
2019-03-15T06:02:14.325Z,6.40
2019-03-15T06:04:43.302Z,6.60
2019-03-15T06:07:31.428Z,6.60
2019-03-15T06:10:19.565Z,6.60
2019-03-15T06:13:07.677Z,6.60
2019-03-15T06:15:55.812Z,6.60
2019-03-15T06:18:43.868Z,6.60
2019-03-15T06:21:31.993Z,6.70
2019-03-15T06:24:20.066Z,6.70
2019-03-15T06:27:08.150Z,6.70
2019-03-15T06:29:49.425Z,6.90
2019-03-15T06:32:18.348Z,7.00
2019-03-15T06:35:06.555Z,7.20
2019-03-15T06:37:54.715Z,7.20
2019-03-15T06:40:42.864Z,7.30
2019-03-15T06:43:13.285Z,7.40
2019-03-15T06:46:15.879Z,7.50
2019-03-15T06:48:51.465Z,7.80
2019-03-15T06:51:39.505Z,7.90
2019-03-15T06:54:27.644Z,8.00
2019-03-15T06:57:15.718Z,8.00
2019-03-15T07:00:03.962Z,8.00
2019-03-15T07:03:04.247Z,8.00
2019-03-15T07:05:42.110Z,7.90
2019-03-15T07:11:05.380Z,8.00
2019-03-15T07:13:53.534Z,8.10
2019-03-15T07:19:35.258Z,8.00
2019-03-15T07:22:23.403Z,7.90
2019-03-15T07:25:11.581Z,7.80
2019-03-15T07:28:00.402Z,7.90
2019-03-15T07:30:48.480Z,7.90
2019-03-15T07:36:31.893Z,7.90
2019-03-15T07:39:20.034Z,8.10
2019-03-15T07:42:08.235Z,8.10
2019-03-15T07:44:56.426Z,8.10
2019-03-15T07:48:21.735Z,8.10
2019-03-15T07:53:55.897Z,8.30
2019-03-15T07:57:20.473Z,8.10
2019-03-15T07:59:58.471Z,8.20
2019-03-15T08:02:27.372Z,8.10
2019-03-15T08:05:15.500Z,8.10
2019-03-15T08:08:03.686Z,8.10
2019-03-15T08:10:54.881Z,8.30
2019-03-15T08:13:41.651Z,8.30
2019-03-15T08:16:29.865Z,8.20
2019-03-15T08:19:18.022Z,8.20
2019-03-15T08:24:54.277Z,8.20
2019-03-15T08:27:42.414Z,8.30
2019-03-15T08:30:23.914Z,8.40
2019-03-15T08:33:10.620Z,8.40
2019-03-15T08:35:48.267Z,8.50
2019-03-15T08:38:28.974Z,8.60
2019-03-15T08:41:10.312Z,8.60
2019-03-15T08:43:39.179Z,8.60
2019-03-15T08:46:27.410Z,8.80
2019-03-15T08:49:15.569Z,8.90
2019-03-15T09:02:04.569Z,8.90
2019-03-15T09:08:00.535Z,9.20
2019-03-15T09:10:48.706Z,9.20
2019-03-15T09:13:37.125Z,9.20
2019-03-15T09:16:25.245Z,9.20
2019-03-15T09:19:13.747Z,9.30
2019-03-15T09:22:02.116Z,9.50
2019-03-15T09:24:50.481Z,9.70
2019-03-15T09:27:38.653Z,9.50
2019-03-15T09:30:26.948Z,9.50
2019-03-15T09:33:07.686Z,9.50
2019-03-15T09:35:48.238Z,9.60
2019-03-15T09:38:31.988Z,9.60
2019-03-15T09:41:13.024Z,9.80
2019-03-15T09:43:53.831Z,9.90
2019-03-15T09:46:34.533Z,10.00
2019-03-15T09:49:15.168Z,10.20
2019-03-15T09:51:55.736Z,10.20
2019-03-15T09:54:36.540Z,10.30
2019-03-15T09:57:17.064Z,10.40
2019-03-15T09:59:57.831Z,10.40
2019-03-15T10:02:38.906Z,10.30
2019-03-15T10:05:11.314Z,9.90
2019-03-15T10:07:58.260Z,10.00
2019-03-15T10:10:48.941Z,10.00
2019-03-15T10:13:38.248Z,9.70
2019-03-15T10:16:26.310Z,9.80
2019-03-15T10:18:55.239Z,9.70
2019-03-15T10:21:43.454Z,9.40
2019-03-15T10:24:31.587Z,9.10
2019-03-15T10:27:19.731Z,9.00
2019-03-15T10:30:08.811Z,9.10
2019-03-15T10:35:25.612Z,9.20
2019-03-15T10:37:54.530Z,9.20
2019-03-15T10:40:42.611Z,9.20
2019-03-15T10:43:30.718Z,9.30
2019-03-15T10:45:59.768Z,9.20
2019-03-15T10:48:47.799Z,9.20
2019-03-15T10:51:35.894Z,9.30
2019-03-15T10:54:24.035Z,9.20
2019-03-15T10:56:53.027Z,9.30
2019-03-15T10:59:21.962Z,9.30
2019-03-15T11:02:10.307Z,9.20
2019-03-15T11:04:58.378Z,9.30
2019-03-15T11:07:46.609Z,9.40
2019-03-15T11:10:34.856Z,9.40
2019-03-15T11:13:22.973Z,9.30
2019-03-15T11:16:11.688Z,9.30
2019-03-15T11:19:00.117Z,9.40
2019-03-15T11:21:48.181Z,9.20
2019-03-15T11:24:36.395Z,9.00
2019-03-15T11:27:24.670Z,9.20
2019-03-15T11:30:13.498Z,9.30
2019-03-15T11:33:01.620Z,9.10
2019-03-15T11:35:42.760Z,9.30
2019-03-15T11:38:23.273Z,9.20
2019-03-15T11:41:04.079Z,9.30
2019-03-15T11:43:44.666Z,9.30
2019-03-15T11:46:25.322Z,9.40
2019-03-15T11:48:54.145Z,9.40
2019-03-15T11:51:42.715Z,9.10
2019-03-15T11:54:32.213Z,9.30
2019-03-15T11:57:20.334Z,9.40
2019-03-15T12:00:09.270Z,9.40
2019-03-15T12:02:57.413Z,9.30
2019-03-15T12:05:45.564Z,9.30
2019-03-15T12:08:34.477Z,9.10
2019-03-15T12:11:22.575Z,9.20
2019-03-15T12:14:10.644Z,9.30
2019-03-15T12:16:58.715Z,9.20
2019-03-15T12:19:46.865Z,9.30
2019-03-15T12:22:35.020Z,9.40
2019-03-15T12:25:23.285Z,9.30
2019-03-15T12:28:11.400Z,9.30
2019-03-15T12:30:59.436Z,9.30
2019-03-15T12:33:47.650Z,9.30
2019-03-15T12:36:28.267Z,9.20
2019-03-15T12:39:09.651Z,9.30
2019-03-15T12:41:51.186Z,9.40
2019-03-15T12:44:31.882Z,9.10
2019-03-15T12:47:12.801Z,9.00
2019-03-15T12:49:53.553Z,9.00
2019-03-15T12:52:46.561Z,9.10
2019-03-15T12:55:16.425Z,9.10
2019-03-15T12:57:56.805Z,9.10
2019-03-15T13:00:37.369Z,9.20
2019-03-15T13:03:17.879Z,9.20
2019-03-15T13:05:58.560Z,9.30
2019-03-15T13:08:39.045Z,9.30
2019-03-15T13:11:19.942Z,9.30
2019-03-15T13:14:01.028Z,9.20
2019-03-15T13:16:41.566Z,9.20
2019-03-15T13:19:22.070Z,9.20
2019-03-15T13:22:03.470Z,9.20
2019-03-15T13:24:44.190Z,9.20
2019-03-15T13:27:13.207Z,9.40
2019-03-15T13:29:42.170Z,9.60
2019-03-15T13:32:18.199Z,9.50
2019-03-15T13:35:06.401Z,9.60
2019-03-15T13:40:42.600Z,9.80
2019-03-15T13:43:21.756Z,9.70
2019-03-15T13:46:10.113Z,9.90
2019-03-15T13:48:58.217Z,10.00
2019-03-15T13:51:46.420Z,9.90
2019-03-15T13:57:03.128Z,10.20
2019-03-15T13:59:51.399Z,10.20
2019-03-15T14:02:39.530Z,10.00
2019-03-15T14:05:27.641Z,10.20
2019-03-15T14:08:15.719Z,10.20
2019-03-15T14:11:03.870Z,10.30
2019-03-15T14:13:52.050Z,10.20
2019-03-15T14:16:40.194Z,10.20
2019-03-15T14:19:40.118Z,10.30
2019-03-15T14:22:18.058Z,10.30
2019-03-15T14:25:06.766Z,10.50
2019-03-15T14:27:54.984Z,10.60
2019-03-15T14:30:43.166Z,10.60
2019-03-15T14:33:31.239Z,10.70
2019-03-15T14:36:19.381Z,10.70
2019-03-15T14:39:07.622Z,10.90
2019-03-15T14:41:49.138Z,10.80
2019-03-15T14:44:30.470Z,11.10
2019-03-15T14:47:10.967Z,11.10
2019-03-15T14:49:52.025Z,11.00
2019-03-15T14:52:32.838Z,11.00
2019-03-15T14:55:14.260Z,11.10
2019-03-15T14:57:55.390Z,11.20
2019-03-15T15:00:36.853Z,11.20
2019-03-15T15:03:17.692Z,11.00
2019-03-15T15:09:18.384Z,11.10
2019-03-15T15:11:59.454Z,11.10
2019-03-15T15:14:40.123Z,11.10
2019-03-15T15:20:31.040Z,11.20
2019-03-15T15:23:27.996Z,11.20
2019-03-15T15:33:20.627Z,11.00
2019-03-15T15:36:53.478Z,10.90
2019-03-15T15:39:44.320Z,11.00
2019-03-15T15:42:24.847Z,11.00
2019-03-15T15:48:26.517Z,10.90
2019-03-15T15:51:39.979Z,10.90
2019-03-15T15:59:38.324Z,10.90
2019-03-15T16:02:20.901Z,10.90
2019-03-15T16:05:01.869Z,10.90
2019-03-15T16:07:43.155Z,10.80
2019-03-15T16:10:23.801Z,10.80
2019-03-15T16:13:16.509Z,10.80
2019-03-15T16:15:35.135Z,10.70
2019-03-15T16:18:04.192Z,10.70
2019-03-15T16:20:52.380Z,10.60
2019-03-15T16:23:40.490Z,10.70
2019-03-15T16:26:28.552Z,10.70
2019-03-15T16:29:16.605Z,10.70
2019-03-15T16:32:04.776Z,10.60
2019-03-15T16:34:52.989Z,10.60
2019-03-15T16:37:41.097Z,10.60
2019-03-15T16:40:29.227Z,10.50
2019-03-15T16:43:10.097Z,10.50
2019-03-15T16:45:50.855Z,10.50
2019-03-15T16:48:32.091Z,10.50
2019-03-15T16:51:00.968Z,10.50
2019-03-15T16:53:49.132Z,10.60
2019-03-15T16:56:37.269Z,10.60
2019-03-15T16:59:25.518Z,10.40
2019-03-15T17:02:13.625Z,10.10
2019-03-15T17:07:38.984Z,9.50
2019-03-15T17:10:27.156Z,9.30
2019-03-15T17:13:15.321Z,9.20
2019-03-15T17:16:03.678Z,9.00
2019-03-15T17:18:53.522Z,8.90
2019-03-15T17:21:50.028Z,8.80
2019-03-15T17:24:38.389Z,8.70
2019-03-15T17:27:26.624Z,8.60
2019-03-15T17:30:14.831Z,8.60
2019-03-15T17:33:06.043Z,8.50
2019-03-15T17:35:52.813Z,8.50
2019-03-15T17:38:41.013Z,8.50
2019-03-15T17:41:29.135Z,8.40
2019-03-15T17:44:17.346Z,8.40
2019-03-15T17:47:06.798Z,8.40
2019-03-15T17:53:06.370Z,8.30
2019-03-15T17:55:54.663Z,8.30
2019-03-15T18:02:08.849Z,8.40
2019-03-15T18:05:21.014Z,8.40
2019-03-15T18:08:09.154Z,8.30
2019-03-15T18:10:57.279Z,8.30
2019-03-15T18:13:45.607Z,8.30
2019-03-15T18:16:33.774Z,8.40
2019-03-15T18:19:22.299Z,8.50
2019-03-15T18:22:10.526Z,8.50
2019-03-15T18:24:58.872Z,8.60
2019-03-15T18:27:47.039Z,8.70
2019-03-15T18:30:35.228Z,8.70
2019-03-15T18:33:23.599Z,8.70
2019-03-15T18:36:11.775Z,8.80
2019-03-15T18:39:00.566Z,8.70
2019-03-15T18:41:50.604Z,8.80
2019-03-15T18:44:38.488Z,8.70
2019-03-15T18:47:19.462Z,8.60
2019-03-15T18:49:59.829Z,8.80
2019-03-15T18:52:40.573Z,8.80
2019-03-15T18:55:21.901Z,8.70
2019-03-15T18:58:02.616Z,8.70
2019-03-15T19:00:44.017Z,8.80
2019-03-15T19:03:13.067Z,9.00
2019-03-15T19:06:01.172Z,9.00
2019-03-15T19:08:49.321Z,8.90
2019-03-15T19:14:25.157Z,9.00
2019-03-15T19:17:13.276Z,9.00
2019-03-15T19:20:01.498Z,9.20
2019-03-15T19:22:49.710Z,9.10
2019-03-15T19:25:38.006Z,9.00
2019-03-15T19:28:26.160Z,8.90
2019-03-15T19:31:16.906Z,8.90
2019-03-15T19:34:05.062Z,8.90
2019-03-15T19:36:53.209Z,8.70
2019-03-15T19:39:41.355Z,8.80
2019-03-15T19:42:11.003Z,8.90
2019-03-15T19:44:39.996Z,8.90
2019-03-15T19:47:20.879Z,8.80
2019-03-15T19:50:01.385Z,8.80
2019-03-15T19:52:44.442Z,8.80
2019-03-15T19:55:25.495Z,8.70
2019-03-15T19:58:06.639Z,8.70
2019-03-15T20:00:47.773Z,8.70
2019-03-15T20:03:43.358Z,8.70
2019-03-15T20:06:12.729Z,8.70
2019-03-15T20:08:53.455Z,8.60
2019-03-15T20:11:35.107Z,8.70
2019-03-15T20:14:16.395Z,8.70
2019-03-15T20:16:57.361Z,8.50
2019-03-15T20:19:38.383Z,8.60
2019-03-15T20:22:21.195Z,8.60
2019-03-15T20:25:02.512Z,8.60
2019-03-15T20:27:42.951Z,8.60
2019-03-15T20:30:26.678Z,8.70
2019-03-15T20:33:07.285Z,8.70
2019-03-15T20:36:13.037Z,8.60
2019-03-15T20:39:00.950Z,8.50
2019-03-15T20:41:42.666Z,8.60
2019-03-15T20:44:28.756Z,8.40
2019-03-15T20:47:06.258Z,8.40
2019-03-15T20:49:46.942Z,8.30
2019-03-15T20:52:27.497Z,8.40
2019-03-15T20:55:08.733Z,8.40
2019-03-15T20:57:49.560Z,8.40
2019-03-15T21:00:36.035Z,8.30
2019-03-15T21:03:12.866Z,8.30
2019-03-15T21:05:53.398Z,8.30
2019-03-15T21:08:34.105Z,8.20
2019-03-15T21:11:15.430Z,8.20
2019-03-15T21:13:55.914Z,8.20
2019-03-15T21:16:36.423Z,8.10
2019-03-15T21:19:17.571Z,8.10
2019-03-15T21:21:58.669Z,8.10
2019-03-15T21:24:39.455Z,8.20
2019-03-15T21:27:20.064Z,8.20
2019-03-15T21:30:00.680Z,8.10
2019-03-15T21:32:41.444Z,8.10
2019-03-15T21:35:22.658Z,8.00
2019-03-15T21:40:58.919Z,8.10
2019-03-15T21:43:47.111Z,8.10
2019-03-15T21:46:35.267Z,8.00
2019-03-15T21:49:23.376Z,8.00
2019-03-15T21:52:04.796Z,8.00
2019-03-15T21:54:45.624Z,8.00
2019-03-15T21:57:26.613Z,8.00
2019-03-15T22:00:07.189Z,8.00
2019-03-15T22:02:48.605Z,7.90
2019-03-15T22:05:29.811Z,7.80
2019-03-15T22:08:11.081Z,7.80
2019-03-15T22:10:51.641Z,7.70
2019-03-15T22:13:32.477Z,7.70
2019-03-15T22:16:13.171Z,7.60
2019-03-15T22:18:53.929Z,7.60
2019-03-15T22:21:34.797Z,7.70
2019-03-15T22:24:15.630Z,7.70
2019-03-15T22:26:56.556Z,7.70
2019-03-15T22:29:38.674Z,7.70
2019-03-15T22:32:20.116Z,7.80
2019-03-15T22:34:49.068Z,7.70
2019-03-15T22:37:37.261Z,7.70
2019-03-15T22:40:25.489Z,7.70
2019-03-15T22:43:13.705Z,7.70
2019-03-15T22:46:01.810Z,7.70
2019-03-15T22:48:50.952Z,7.60
2019-03-15T22:51:39.289Z,7.50
2019-03-15T22:54:20.495Z,7.40
2019-03-15T22:57:01.001Z,7.30
2019-03-15T22:59:41.832Z,7.20
2019-03-15T23:02:22.527Z,7.30
2019-03-15T23:04:51.541Z,7.20
2019-03-15T23:07:20.428Z,7.10
2019-03-15T23:09:49.276Z,7.10
2019-03-15T23:12:18.117Z,7.10
2019-03-15T23:14:46.960Z,7.20
2019-03-15T23:17:15.750Z,7.20
2019-03-15T23:19:44.557Z,7.30
2019-03-15T23:22:16.602Z,7.40
2019-03-15T23:24:45.425Z,7.40
2019-03-15T23:27:14.422Z,7.30
2019-03-15T23:29:43.220Z,7.30
2019-03-15T23:32:12.036Z,7.30
2019-03-15T23:34:40.858Z,7.40
2019-03-15T23:37:09.695Z,7.30
2019-03-15T23:39:38.561Z,7.30
2019-03-15T23:42:09.746Z,7.30
2019-03-15T23:44:38.925Z,7.30
2019-03-15T23:47:07.857Z,7.30
2019-03-15T23:49:36.720Z,7.20
2019-03-15T23:52:05.658Z,7.20
2019-03-15T23:54:34.526Z,7.20
2019-03-15T23:57:03.340Z,7.30
2019-03-15T23:59:32.230Z,7.20
